createdAt,value
2023-05-14T00:00:44.532Z,99.90
2023-05-14T00:03:44.531Z,99.90
2023-05-14T00:06:52.941Z,99.90
2023-05-14T00:09:45.280Z,99.90
2023-05-14T00:12:44.558Z,99.90
2023-05-14T00:15:34.756Z,99.90
2023-05-14T00:18:26.302Z,99.90
2023-05-14T00:21:24.540Z,99.90
2023-05-14T00:24:31.006Z,99.90
2023-05-14T00:27:22.154Z,99.90
2023-05-14T00:30:14.528Z,99.90
2023-05-14T00:33:12.230Z,99.90
2023-05-14T00:36:04.584Z,99.90
2023-05-14T00:39:04.636Z,99.90
2023-05-14T00:41:59.578Z,99.90
2023-05-14T00:44:54.623Z,99.90
2023-05-14T00:47:46.488Z,99.90
2023-05-14T00:50:44.577Z,99.90
2023-05-14T00:53:43.461Z,99.90
2023-05-14T00:56:42.987Z,99.90
2023-05-14T00:59:42.982Z,99.90
2023-05-14T01:02:34.699Z,99.90
2023-05-14T01:05:42.997Z,99.90
2023-05-14T01:08:54.582Z,99.90
2023-05-14T01:12:10.182Z,99.90
2023-05-14T01:15:12.937Z,99.90
2023-05-14T01:18:10.452Z,99.90
2023-05-14T01:21:00.052Z,99.90
2023-05-14T01:24:01.530Z,99.90
2023-05-14T01:26:54.662Z,99.90
2023-05-14T01:30:03.992Z,99.90
2023-05-14T01:33:00.925Z,99.90
2023-05-14T01:35:54.171Z,99.90
2023-05-14T01:38:47.579Z,99.90
2023-05-14T01:41:53.069Z,99.90
2023-05-14T01:44:44.642Z,99.90
2023-05-14T01:47:48.187Z,99.90
2023-05-14T01:50:41.934Z,99.90
2023-05-14T01:53:34.720Z,99.90
2023-05-14T01:56:33.072Z,99.90
2023-05-14T01:59:30.333Z,99.90
2023-05-14T02:02:19.447Z,99.90
2023-05-14T02:05:14.734Z,99.90
2023-05-14T02:08:08.815Z,99.90
2023-05-14T02:11:03.099Z,99.90
2023-05-14T02:14:00.152Z,99.90
2023-05-14T02:17:02.460Z,99.90
2023-05-14T02:19:56.565Z,99.90
2023-05-14T02:22:46.520Z,99.90
2023-05-14T02:25:44.787Z,99.90
2023-05-14T02:28:34.768Z,99.90
2023-05-14T02:31:33.150Z,99.90
2023-05-14T02:34:34.018Z,99.90
2023-05-14T02:37:25.865Z,99.90
2023-05-14T02:40:21.058Z,99.90
2023-05-14T02:43:13.141Z,99.90
2023-05-14T02:46:04.757Z,99.90
2023-05-14T02:49:03.627Z,99.90
2023-05-14T02:52:03.990Z,99.90
2023-05-14T02:55:03.781Z,99.90
2023-05-14T02:57:59.619Z,99.90
2023-05-14T03:00:52.117Z,99.90
2023-05-14T03:03:43.182Z,99.90
2023-05-14T03:06:34.770Z,99.90
2023-05-14T03:09:43.140Z,99.90
2023-05-14T03:12:42.943Z,99.90
2023-05-14T03:15:34.180Z,99.90
2023-05-14T03:18:24.218Z,99.90
2023-05-14T03:21:14.761Z,99.90
2023-05-14T03:24:07.455Z,99.90
2023-05-14T03:27:11.780Z,99.90
2023-05-14T03:30:02.072Z,99.90
2023-05-14T03:32:52.597Z,99.90
2023-05-14T03:35:43.227Z,99.90
2023-05-14T03:38:53.232Z,99.90
2023-05-14T03:41:54.837Z,99.90
2023-05-14T03:44:48.447Z,99.90
2023-05-14T03:47:42.729Z,99.90
2023-05-14T03:50:31.990Z,99.90
2023-05-14T03:53:22.537Z,99.90
2023-05-14T03:56:14.838Z,99.90
2023-05-14T03:59:10.754Z,99.90
2023-05-14T04:02:13.268Z,99.90
2023-05-14T04:05:14.824Z,99.90
2023-05-14T04:08:04.020Z,99.90
2023-05-14T04:11:04.866Z,99.90
2023-05-14T04:13:54.534Z,99.90
2023-05-14T04:16:44.921Z,99.90
2023-05-14T04:19:48.730Z,99.90
2023-05-14T04:22:40.837Z,99.90
2023-05-14T04:25:40.667Z,99.90
2023-05-14T04:28:34.925Z,99.90
2023-05-14T04:31:24.281Z,99.90
2023-05-14T04:34:24.892Z,99.90
2023-05-14T04:37:33.319Z,99.90
2023-05-14T04:40:24.461Z,99.90
2023-05-14T04:43:15.691Z,99.90
2023-05-14T04:46:14.418Z,99.90
2023-05-14T04:49:13.321Z,99.90
2023-05-14T04:52:06.269Z,99.90
2023-05-14T04:55:06.552Z,99.90
2023-05-14T04:57:58.901Z,99.90
2023-05-14T05:00:52.642Z,99.90
2023-05-14T05:03:45.026Z,99.90
2023-05-14T05:06:37.742Z,99.90
2023-05-14T05:09:34.954Z,99.90
2023-05-14T05:12:33.345Z,99.90
2023-05-14T05:15:26.569Z,99.90
2023-05-14T05:18:24.970Z,99.90
2023-05-14T05:21:24.900Z,99.90
2023-05-14T05:24:14.474Z,99.90
2023-05-14T05:27:05.763Z,99.90
2023-05-14T05:30:03.386Z,99.90
2023-05-14T05:33:03.489Z,99.90
2023-05-14T05:35:53.535Z,99.90
2023-05-14T05:38:44.999Z,99.90
2023-05-14T05:41:42.744Z,99.90
2023-05-14T05:44:32.329Z,99.90
2023-05-14T05:47:27.131Z,99.90
2023-05-14T05:50:21.510Z,99.90
2023-05-14T05:53:12.928Z,99.90
2023-05-14T05:56:04.561Z,99.90
2023-05-14T05:59:02.822Z,99.90
2023-05-14T06:01:52.589Z,99.90
2023-05-14T06:04:53.301Z,99.90
2023-05-14T06:07:53.866Z,99.90
2023-05-14T06:10:55.070Z,99.90
2023-05-14T06:13:46.121Z,99.90
2023-05-14T06:16:42.056Z,99.90
2023-05-14T06:19:32.550Z,99.90
2023-05-14T06:22:33.454Z,99.90
2023-05-14T06:25:35.131Z,99.90
2023-05-14T06:28:33.454Z,99.90
2023-05-14T06:31:32.278Z,99.90
2023-05-14T06:34:25.057Z,99.90
2023-05-14T06:37:20.046Z,99.90
2023-05-14T06:40:21.488Z,99.90
2023-05-14T06:43:12.898Z,99.90
2023-05-14T06:46:02.555Z,99.90
2023-05-14T06:48:52.883Z,99.90
2023-05-14T06:51:45.068Z,99.90
2023-05-14T06:54:42.362Z,99.90
2023-05-14T06:57:35.099Z,99.90
2023-05-14T07:00:32.388Z,99.90
2023-05-14T07:03:22.643Z,99.90
2023-05-14T07:06:13.630Z,99.90
2023-05-14T07:09:10.753Z,99.90
2023-05-14T07:12:05.133Z,99.90
2023-05-14T07:15:00.619Z,99.90
2023-05-14T07:17:55.191Z,99.90
2023-05-14T07:20:53.220Z,99.90
2023-05-14T07:23:42.562Z,99.90
2023-05-14T07:26:32.689Z,99.90
2023-05-14T07:29:22.972Z,99.90
2023-05-14T07:32:15.764Z,99.90
2023-05-14T07:35:17.109Z,99.90
2023-05-14T07:38:12.913Z,99.90
2023-05-14T07:41:05.262Z,99.90
2023-05-14T07:44:04.134Z,99.90
2023-05-14T07:47:01.437Z,99.90
2023-05-14T07:49:59.943Z,99.90
2023-05-14T07:52:51.593Z,99.90
2023-05-14T07:55:50.041Z,99.90
2023-05-14T07:58:39.949Z,99.90
2023-05-14T08:01:32.503Z,99.90
2023-05-14T08:04:24.697Z,99.90
2023-05-14T08:07:36.641Z,99.90
2023-05-14T08:10:28.341Z,99.90
2023-05-14T08:13:22.900Z,99.90
2023-05-14T08:16:19.248Z,99.90
2023-05-14T08:19:15.904Z,99.90
2023-05-14T08:22:06.011Z,99.90
2023-05-14T08:25:06.614Z,99.90
2023-05-14T08:28:07.992Z,99.90
2023-05-14T08:31:07.271Z,99.90
2023-05-14T08:34:03.661Z,99.90
2023-05-14T08:37:03.686Z,99.90
2023-05-14T08:40:22.247Z,99.90
2023-05-14T08:43:28.128Z,99.90
2023-05-14T08:46:29.465Z,99.90
2023-05-14T08:49:43.276Z,99.90
2023-05-14T08:52:48.027Z,99.90
2023-05-14T08:55:55.883Z,99.90
2023-05-14T08:58:53.026Z,99.90
2023-05-14T09:01:55.053Z,99.90
2023-05-14T09:04:56.734Z,99.90
2023-05-14T09:07:58.281Z,99.90
2023-05-14T09:10:48.938Z,99.90
2023-05-14T09:13:55.185Z,99.90
2023-05-14T09:16:55.305Z,99.90
2023-05-14T09:19:47.958Z,99.90
2023-05-14T09:22:37.820Z,99.90
2023-05-14T09:25:32.960Z,99.90
2023-05-14T09:28:29.545Z,99.90
2023-05-14T09:31:29.600Z,99.90
2023-05-14T09:34:29.961Z,99.90
2023-05-14T09:37:36.804Z,99.90
2023-05-14T09:40:28.100Z,99.90
2023-05-14T09:43:19.054Z,99.90
2023-05-14T09:46:31.974Z,99.90
2023-05-14T09:49:23.459Z,99.90
2023-05-14T09:52:15.116Z,99.90
2023-05-14T09:55:13.808Z,99.90
2023-05-14T09:58:09.436Z,99.90
2023-05-14T10:01:04.846Z,99.90
2023-05-14T10:04:11.508Z,99.90
2023-05-14T10:07:25.389Z,99.90
2023-05-14T10:10:28.201Z,99.90
2023-05-14T10:13:31.427Z,99.90
2023-05-14T10:16:40.565Z,99.90
2023-05-14T10:19:50.021Z,99.90
2023-05-14T10:22:45.948Z,99.90
2023-05-14T10:25:37.264Z,99.90
2023-05-14T10:28:38.431Z,99.90
2023-05-14T10:31:55.852Z,99.90
2023-05-14T10:34:50.667Z,99.90
2023-05-14T10:37:53.669Z,99.90
2023-05-14T10:40:54.299Z,99.90
2023-05-14T10:43:57.082Z,99.90
2023-05-14T10:46:51.669Z,99.90
2023-05-14T10:49:43.825Z,99.90
2023-05-14T10:52:46.169Z,99.90
2023-05-14T10:55:37.102Z,99.90
2023-05-14T10:58:26.021Z,99.90
2023-05-14T11:01:20.816Z,99.90
2023-05-14T11:04:19.988Z,99.90
2023-05-14T11:07:11.028Z,99.90
2023-05-14T11:10:24.224Z,99.90
2023-05-14T11:13:19.066Z,99.90
2023-05-14T11:16:24.082Z,99.90
2023-05-14T11:19:25.145Z,99.90
2023-05-14T11:22:23.845Z,99.90
2023-05-14T11:25:26.593Z,99.90
2023-05-14T11:28:17.175Z,99.90
2023-05-14T11:31:25.361Z,99.90
2023-05-14T11:34:25.137Z,99.90
2023-05-14T11:37:30.986Z,99.90
2023-05-14T11:40:28.846Z,99.90
2023-05-14T11:43:32.308Z,99.90
2023-05-14T11:46:31.425Z,99.90
2023-05-14T11:49:37.538Z,99.90
2023-05-14T11:52:48.480Z,99.90
2023-05-14T11:56:00.029Z,99.90
2023-05-14T11:58:57.250Z,99.90
2023-05-14T12:01:54.620Z,99.90
2023-05-14T12:04:52.818Z,99.90
2023-05-14T12:08:06.967Z,99.90
2023-05-14T12:11:36.026Z,99.90
2023-05-14T12:14:26.554Z,99.90
2023-05-14T12:17:25.657Z,99.90
2023-05-14T12:20:20.965Z,99.90
2023-05-14T12:23:24.707Z,99.90
2023-05-14T12:26:19.816Z,99.90
2023-05-14T12:29:09.257Z,99.90
2023-05-14T12:32:26.041Z,99.90
2023-05-14T12:35:17.259Z,99.90
2023-05-14T12:38:12.164Z,99.90
2023-05-14T12:41:02.064Z,99.90
2023-05-14T12:44:08.517Z,99.90
2023-05-14T12:47:12.654Z,99.90
2023-05-14T12:50:20.708Z,99.90
2023-05-14T12:53:17.451Z,99.90
2023-05-14T12:56:09.846Z,99.90
2023-05-14T12:59:11.123Z,99.90
2023-05-14T13:02:29.586Z,99.90
2023-05-14T13:05:20.875Z,99.90
2023-05-14T13:08:18.120Z,99.90
2023-05-14T13:11:33.489Z,99.90
2023-05-14T13:14:37.752Z,99.90
2023-05-14T13:17:41.817Z,99.90
2023-05-14T13:20:36.254Z,99.90
2023-05-14T13:23:36.082Z,99.90
2023-05-14T13:26:32.069Z,99.90
2023-05-14T13:29:46.382Z,99.90
2023-05-14T13:32:44.600Z,99.90
2023-05-14T13:35:36.836Z,99.90
2023-05-14T13:38:32.304Z,99.90
2023-05-14T13:41:32.991Z,99.90
2023-05-14T13:44:41.507Z,99.90
2023-05-14T13:47:32.184Z,99.90
2023-05-14T13:50:23.536Z,99.90
2023-05-14T13:53:24.056Z,99.90
2023-05-14T13:56:15.914Z,99.90
2023-05-14T13:59:08.009Z,99.90
2023-05-14T14:02:09.382Z,99.90
2023-05-14T14:05:00.844Z,99.90
2023-05-14T14:08:07.920Z,99.90
2023-05-14T14:11:17.625Z,99.90
2023-05-14T14:14:06.920Z,99.90
2023-05-14T14:16:57.214Z,99.90
2023-05-14T14:20:00.188Z,99.90
2023-05-14T14:22:53.599Z,95.70
2023-05-14T14:25:49.682Z,96.50
2023-05-14T14:28:49.024Z,97.20
2023-05-14T14:31:39.233Z,95.60
2023-05-14T14:34:35.756Z,94.80
2023-05-14T14:37:32.480Z,95.90
2023-05-14T14:40:30.113Z,94.70
2023-05-14T14:43:23.551Z,94.70
2023-05-14T14:46:30.433Z,94.10
2023-05-14T14:49:48.558Z,93.80
2023-05-14T14:52:52.164Z,93.70
2023-05-14T14:55:54.141Z,92.60
2023-05-14T14:58:52.160Z,93.70
2023-05-14T15:01:59.759Z,92.10
2023-05-14T15:05:04.060Z,91.90
2023-05-14T15:07:56.229Z,87.00
2023-05-14T15:10:51.482Z,84.50
2023-05-14T15:13:55.478Z,84.30
2023-05-14T15:16:45.066Z,84.30
2023-05-14T15:19:52.107Z,85.60
2023-05-14T15:22:52.889Z,88.30
2023-05-14T15:25:46.305Z,90.10
2023-05-14T15:28:36.923Z,88.60
2023-05-14T15:31:26.656Z,88.30
2023-05-14T15:34:24.831Z,88.80
2023-05-14T15:37:13.842Z,87.70
2023-05-14T15:40:17.033Z,86.10
2023-05-14T15:43:31.850Z,87.50
2023-05-14T15:46:23.283Z,83.50
2023-05-14T15:49:30.014Z,85.60
2023-05-14T15:52:20.010Z,85.10
2023-05-14T15:55:26.938Z,83.80
2023-05-14T15:58:25.307Z,83.00
2023-05-14T16:01:38.204Z,82.20
2023-05-14T16:04:29.226Z,78.50
2023-05-14T16:07:19.371Z,77.70
2023-05-14T16:10:17.019Z,75.90
2023-05-14T16:13:14.714Z,75.70
2023-05-14T16:16:03.757Z,74.50
2023-05-14T16:19:27.362Z,74.00
2023-05-14T16:22:16.582Z,72.10
2023-05-14T16:25:14.823Z,73.40
2023-05-14T16:28:12.644Z,72.00
2023-05-14T16:31:05.685Z,71.40
2023-05-14T16:34:14.549Z,68.80
2023-05-14T16:37:13.472Z,69.60
2023-05-14T16:40:25.174Z,68.50
2023-05-14T16:43:14.642Z,69.00
2023-05-14T16:46:14.327Z,68.00
2023-05-14T16:49:15.822Z,67.00
2023-05-14T16:52:23.240Z,68.10
2023-05-14T16:55:21.848Z,64.60
2023-05-14T16:58:25.096Z,66.10
2023-05-14T17:01:15.280Z,66.40
2023-05-14T17:04:23.269Z,65.60
2023-05-14T17:07:24.074Z,64.20
2023-05-14T17:10:29.073Z,63.30
2023-05-14T17:13:27.678Z,65.00
2023-05-14T17:16:42.436Z,63.80
2023-05-14T17:19:38.274Z,64.60
2023-05-14T17:22:44.337Z,63.90
2023-05-14T17:25:35.165Z,63.00
2023-05-14T17:28:35.748Z,65.70
2023-05-14T17:31:31.931Z,66.20
2023-05-14T17:34:32.668Z,66.80
2023-05-14T17:37:21.893Z,65.90
2023-05-14T17:40:33.993Z,65.90
2023-05-14T17:43:37.342Z,64.50
2023-05-14T17:46:45.388Z,64.60
2023-05-14T17:49:38.462Z,65.50
2023-05-14T17:52:38.262Z,66.50
2023-05-14T17:55:30.206Z,66.40
2023-05-14T17:58:36.883Z,68.20
2023-05-14T18:01:29.422Z,68.90
2023-05-14T18:04:25.851Z,68.60
2023-05-14T18:07:25.069Z,69.20
2023-05-14T18:10:14.213Z,69.70
2023-05-14T18:13:17.411Z,70.90
2023-05-14T18:16:18.659Z,71.90
2023-05-14T18:19:17.023Z,71.70
2023-05-14T18:22:17.500Z,72.30
2023-05-14T18:25:17.420Z,72.80
2023-05-14T18:28:15.329Z,73.70
2023-05-14T18:31:11.426Z,74.90
2023-05-14T18:34:03.109Z,77.70
2023-05-14T18:36:52.558Z,78.20
2023-05-14T18:39:44.817Z,78.80
2023-05-14T18:42:43.241Z,80.80
2023-05-14T18:45:41.547Z,81.60
2023-05-14T18:48:53.864Z,83.90
2023-05-14T18:52:03.348Z,87.10
2023-05-14T18:55:00.717Z,83.70
2023-05-14T18:57:53.647Z,84.60
2023-05-14T19:00:42.434Z,85.70
2023-05-14T19:03:42.466Z,87.60
2023-05-14T19:06:54.807Z,88.60
2023-05-14T19:10:03.963Z,90.50
2023-05-14T19:12:54.948Z,90.00
2023-05-14T19:15:52.660Z,90.50
2023-05-14T19:18:49.507Z,91.20
2023-05-14T19:21:41.007Z,91.10
2023-05-14T19:24:45.611Z,91.60
2023-05-14T19:27:41.190Z,92.90
2023-05-14T19:30:41.748Z,92.30
2023-05-14T19:33:39.841Z,92.70
2023-05-14T19:36:38.254Z,93.30
2023-05-14T19:39:40.099Z,93.10
2023-05-14T19:42:32.937Z,94.40
2023-05-14T19:45:23.876Z,94.00
2023-05-14T19:48:22.091Z,94.40
2023-05-14T19:51:18.816Z,94.80
2023-05-14T19:54:08.966Z,95.40
2023-05-14T19:57:09.169Z,95.30
2023-05-14T20:00:10.949Z,95.90
2023-05-14T20:03:00.927Z,96.00
2023-05-14T20:05:58.692Z,96.50
2023-05-14T20:08:52.052Z,96.50
2023-05-14T20:11:53.614Z,96.90
2023-05-14T20:15:29.615Z,97.00
2023-05-14T20:18:21.439Z,98.10
2023-05-14T20:21:23.206Z,97.90
2023-05-14T20:24:23.520Z,98.50
2023-05-14T20:27:29.927Z,98.30
2023-05-14T20:30:33.848Z,98.40
2023-05-14T20:33:26.663Z,99.90
2023-05-14T20:36:24.842Z,99.40
2023-05-14T20:39:14.762Z,99.70
2023-05-14T20:42:14.272Z,99.90
2023-05-14T20:45:07.928Z,99.90
2023-05-14T20:48:23.174Z,99.90
2023-05-14T20:51:12.353Z,99.90
2023-05-14T20:54:08.134Z,99.90
2023-05-14T20:57:08.085Z,99.90
2023-05-14T21:00:10.500Z,99.90
2023-05-14T21:03:25.070Z,99.90
2023-05-14T21:06:23.557Z,99.90
2023-05-14T21:09:31.507Z,99.90
2023-05-14T21:12:25.262Z,99.90
2023-05-14T21:15:20.536Z,99.90
2023-05-14T21:18:33.128Z,99.90
2023-05-14T21:21:28.032Z,99.90
2023-05-14T21:24:20.613Z,99.90
2023-05-14T21:27:10.295Z,99.90
2023-05-14T21:30:17.198Z,99.90
2023-05-14T21:33:40.894Z,99.90
2023-05-14T21:36:41.567Z,99.90
2023-05-14T21:39:43.354Z,99.90
2023-05-14T21:42:41.066Z,99.90
2023-05-14T21:45:34.306Z,99.90
2023-05-14T21:48:47.933Z,99.90
2023-05-14T21:51:58.119Z,99.90
2023-05-14T21:54:51.463Z,99.90
2023-05-14T21:57:48.416Z,99.90
2023-05-14T22:00:38.494Z,99.90
2023-05-14T22:04:02.784Z,99.90
2023-05-14T22:06:57.764Z,99.90
2023-05-14T22:09:50.572Z,99.90
2023-05-14T22:12:53.560Z,99.90
2023-05-14T22:15:51.334Z,99.90
2023-05-14T22:19:03.977Z,99.90
2023-05-14T22:21:58.327Z,99.90
2023-05-14T22:25:03.223Z,99.90
2023-05-14T22:27:53.232Z,99.90
2023-05-14T22:31:01.486Z,99.90
2023-05-14T22:34:01.681Z,99.90
2023-05-14T22:37:03.979Z,99.90
2023-05-14T22:40:09.278Z,99.90
2023-05-14T22:43:02.355Z,99.90
2023-05-14T22:45:51.993Z,99.90
2023-05-14T22:48:54.178Z,99.90
2023-05-14T22:52:08.773Z,99.90
2023-05-14T22:55:05.659Z,99.90
2023-05-14T22:57:56.139Z,99.90
2023-05-14T23:00:52.407Z,99.90
2023-05-14T23:03:45.859Z,99.90
2023-05-14T23:06:34.973Z,99.90
2023-05-14T23:09:37.372Z,99.90
2023-05-14T23:12:31.098Z,99.90
2023-05-14T23:15:39.559Z,99.90
2023-05-14T23:18:33.464Z,99.90
2023-05-14T23:21:31.291Z,99.90
2023-05-14T23:24:26.627Z,99.90
2023-05-14T23:27:31.991Z,99.90
2023-05-14T23:30:34.144Z,99.90
2023-05-14T23:33:31.142Z,99.90
2023-05-14T23:36:20.345Z,99.90
2023-05-14T23:39:30.002Z,99.90
2023-05-14T23:42:33.911Z,99.90
2023-05-14T23:45:33.540Z,99.90
2023-05-14T23:48:33.527Z,99.90
2023-05-14T23:51:25.685Z,99.90
2023-05-14T23:54:17.656Z,99.90
2023-05-14T23:57:14.741Z,99.90
